SBUG

Rubem Berta Airport

Uruguaiana, Brazil
TAF SBUG 181530Z 1818/1918 04008KT CAVOK TX27/1818Z TN18/1908Z PROB30 1908/1912 1200 BR SCT002 RMK PCO
Issued Valid From Valid To
Jul-18 @ 15:30 UTC
(7 hours ago)
Jul-18 @ 18:00 UTC
(4 hours ago)
Jul-19 @ 18:00 UTC
(in 20 hours)
Jul-18 @ 18:00 to Jul-19 @ 18:00
TAF SBUG 181530Z 1818/1918 04008KT CAVOK TX27/1818Z TN18/1908Z
Wind Visibility Clouds
40° at 8 knots 10,000+ meters
  • No significant clouds
Probable  (Probability 30%) Jul-19 @ 08:00 to Jul-19 @ 12:00
PROB30 1908/1912 1200 BR SCT002 RMK PCO
Visibility Clouds Conditions
1,207 meters
  • Scattered at 200' AGL
  • Mist
TAF SBUG 181530Z 1818/1918 04008KT CAVOK TX27/1818Z TN18/1908Z PROB30 1908/1912 1200 BR SCT002 RMK PCO
Issued Jul-18 @ 15:30 UTC
(7 hours ago)
Valid From Jul-18 @ 18:00 UTC
(4 hours ago)
Valid To Jul-19 @ 18:00 UTC
(in 20 hours)
Jul-18 @ 18:00 - Jul-19 @ 18:00
Wind Visibility
40° at 8 knots 10,000+ meters
Clouds
  • No significant clouds
Probability 30% Probable Jul-19 @ 08:00 - Jul-19 @ 12:00
Clouds
  • Scattered at 200' AGL
Conditions
  • Mist